AirNav   Bose Proflight Series 2 Wireless Aviation Headset
 
 704 users online  

0XS4 EDS Heliport
Allen, Texas, USA

GOING TO ALLEN?


FAA INFORMATION EFFECTIVE 07 NOVEMBER 2019

Location

FAA Identifier: 0XS4
Lat/Long: 33-05-30.0000N 096-41-10.0000W
33-05.500000N 096-41.166667W
33.0916667,-96.6861111
(estimated)
Elevation: 602 ft. / 183 m (estimated)
Variation: 06E (1995)
Time zone: UTC -6 (UTC -5 during Daylight Saving Time)
Zip code: 75013

Heliport Operations

Heliport use: Private use. Permission required prior to landing
Activation date: 02/1998
Control tower: no
ARTCC: FORT WORTH CENTER
FSS: FORT WORTH FLIGHT SERVICE STATION
Attendance: UNATNDD
Segmented circle: no

Heliport Communications

WX ASOS at TKI (7 nm NE): 119.925 (972-548-8525)
WX AWOS-3 at ADS (11 nm SW): PHONE 972-386-4855
WX AWOS-3 at F46 (16 nm SE): 121.25 (972-772-6699)
WX ASOS at DAL (17 nm SW): PHONE 214-353-1551

Nearby radio navigation aids

VOR radial/distance  VOR name  Freq  Var
CVEr036/16.3COWBOY VOR/DME116.2006E
TTTr047/22.3MAVERICK VOR/DME113.1006E
FUZr058/27.6RANGER VORTAC115.7006E
BYPr214/35.1BONHAM VORTAC114.6006E

 
NDB name  Hdg/Dist  Freq  Var  ID
MESQUITE332/18.724803EPQF .--. --.- ..-.
CADDO MILLS272/22.231606EMII -- .. ..
TRAVIS306/29.726006EAVZ .- ...- --..

Heliport Services

Runway Information

Helipad H1

Dimensions: 50 x 50 ft. / 15 x 15 m
Surface: concrete
Traffic pattern: leftleft

Heliport Ownership and Management from official FAA records

Ownership: Privately-owned
Owner: EDS CORP - AVIATION DEPT
9301 WEISS STREET
DALLAS, TX 75235
Phone 972-604-8945
Manager: MARK BABCOCK
5400 LEGACY DR
PLANO, TX 75024
Phone 972-604-8945

Additional Remarks

A52-H1 30 FT BLDG 300 FT EAST & 30 FT BLDG 900 FT NE OF HELIPAD.
FOR CD CTC REGIONAL APCH AT 972-615-2799.

Instrument Procedures

There are no published instrument procedures at 0XS4.

Some nearby airports with instrument procedures:

KTKI - McKinney National Airport (7 nm NE)
KADS - Addison Airport (11 nm SW)
F46 - Ralph M Hall/Rockwall Municipal Airport (16 nm SE)
KDAL - Dallas Love Field Airport (17 nm SW)
KDFW - Dallas-Fort Worth International Airport (21 nm SW)
 
Loc | Ops | Rwys | IFR | FBO | Links
Com | Nav | Svcs | Stats | Notes
Area around 0XS4 (EDS Heliport)
 
Road maps at: MapQuest Bing Google
 
Aerial photo
No photo
 
Sectional chart

 
Airport distance calculator
Flying to EDS Heliport? Find the distance to fly.

From to 0XS4

Sunrise and sunset
Times for 19-Nov-2019
 Local
(UTC-6)
 Zulu
(UTC)
Morning civil twilight06:3612:36
Sunrise07:0213:02
Sunset17:2223:22
Evening civil twilight17:4923:49

Current date and time
Zulu (UTC)  19-Nov-2019 11:46:47
Local (UTC-6)  19-Nov-2019 05:46:47
 
METAR
KTKI 
8nm NE 
191053Z AUTO 00000KT 10SM CLR 05/02 A2993 RMK AO2 SLP140 T00500022
KADS 
10nm SW 
190935Z AUTO 00000KT 10SM CLR 10/03 A2994 RMK AO2 T00980032
KF46 
16nm SE 
191135Z AUTO 17004KT 10SM CLR 08/04 A2994 RMK AO2 T00830036
KDAL 
17nm SW 
191053Z 00000KT 10SM CLR 09/04 A2994 RMK AO2 SLP134 T00940044 $
TAF
KDAL 
17nm SW 
190849Z 1909/2006 19003KT P6SM SKC FM191600 15008KT P6SM FEW250
KDFW 
20nm SW 
190849Z 1909/2012 21005KT P6SM SKC FM191600 15010KT P6SM FEW250
NOTAMs
Click for the latest NOTAMs
NOTAMs are issued by the DoD/FAA and will open in a separate window not controlled by AirNav.

 

 
 

Would you like to see your business listed on this page?

 If your business provides an interesting product or service to pilots, flight crews, aircraft, or users of the EDS Heliport, you should consider listing it here.  To start the listing process, click on the button below
 
Add a business
 

Other Pages about EDS Heliport

Update a link
 
Copyright © AirNav, LLC. All rights reserved. Privacy Policy  Contact